Scroggins, Texas
Current Conditions -  °F | °C
As of 10:15 AM on Wednesday 28 Jan 2015 (Local Time) from KOSA Reporting Station
Clear Clear  
Wind Chill: 64°   Ceiling: Unl
Heat Index: 64°   Visibility: 10mi
Dew Point: 45°   Wind: 6mph
Humidity: 51%   Direction: 150°SSE
Pressure: 30.19"   Gusts: NA
Location:  33.07°N, 95.2°W
Report Text: KOSA 281615Z AUTO 15005KT 10SM CLR 18/07 A3019 RMK AO1 T01780074
Loading
Personal Weather Stations






























Interactive Weather Map New forecast layout! Learn more

10-Day Weather Forecast

Advertisements
Track Severe Weather on mobile